Time;durP1;ratioP1;P1;durP2;ratioP2;P2;SDS_P1;SDS_P2;PMS_P1;PMS_P2;Temp;Humidity;BMP_temperature;BMP_pressure;BME280_temperature;BME280_humidity;BME280_pressure;Samples;Min_cycle;Max_cycle;Signal;HPM_P1;HPM_P2
2022/03/22 19:58:33;;;;;;;40.10;17.50;;;;;;;23.78;27.23;102894.94;5098310;28;20390;-58
2022/03/22 20:00:59;;;;;;;41.33;20.43;;;;;;;23.74;27.30;102904.63;5111130;28;20284;-54
2022/03/22 20:03:24;;;;;;;48.83;19.70;;;;;;;23.56;27.28;102900.09;5098090;28;20266;-57
2022/03/22 20:05:50;;;;;;;40.70;19.23;;;;;;;23.65;27.53;102893.25;5091613;28;20465;-56
2022/03/22 20:08:16;;;;;;;45.88;20.75;;;;;;;23.62;27.45;102904.59;5092305;28;20024;-58
2022/03/22 20:10:41;;;;;;;40.30;18.73;;;;;;;23.57;27.82;102902.59;5098225;28;20043;-55
2022/03/22 20:13:09;;;;;;;47.97;20.48;;;;;;;23.45;27.42;102899.00;5099320;28;20048;-56
2022/03/22 20:15:37;;;;;;;51.07;19.63;;;;;;;23.40;27.88;102896.13;5105525;28;20036;-55
2022/03/22 20:18:06;;;;;;;47.67;19.67;;;;;;;23.43;27.59;102906.59;5094587;28;20306;-53
2022/03/22 20:20:32;;;;;;;51.80;20.13;;;;;;;23.31;27.96;102895.63;5104331;28;20273;-55
2022/03/22 20:22:59;;;;;;;45.93;19.20;;;;;;;23.24;27.86;102895.69;5101073;28;20269;-56
2022/03/22 20:25:26;;;;;;;46.63;20.93;;;;;;;23.23;27.69;102904.13;5097667;28;20297;-56
2022/03/22 20:27:53;;;;;;;43.17;21.00;;;;;;;23.29;27.66;102903.22;5107869;28;20284;-55
2022/03/22 20:30:20;;;;;;;50.07;20.70;;;;;;;23.19;27.63;102901.00;5095552;28;20040;-53
2022/03/22 20:32:46;;;;;;;53.50;19.87;;;;;;;23.02;28.10;102909.00;5103077;28;20274;-58
2022/03/22 20:35:14;;;;;;;;;;;;;;;22.99;28.30;102907.56;5103271;28;20781;-57
2022/03/22 20:37:39;;;;;;;44.15;20.67;;;;;;;22.99;27.99;102896.66;5095272;28;19913;-57
2022/03/22 20:40:06;;;;;;;43.70;20.27;;;;;;;23.00;27.99;102903.75;5107147;28;20040;-56
2022/03/22 20:42:32;;;;;;;45.23;19.07;;;;;;;22.97;27.99;102893.31;5097365;28;20028;-57
2022/03/22 20:44:59;;;;;;;44.25;18.80;;;;;;;22.94;27.69;102901.97;5101150;28;20266;-56
2022/03/22 20:47:24;;;;;;;43.35;20.25;;;;;;;22.80;27.99;102903.19;5104454;28;20138;-57
2022/03/22 20:49:50;;;;;;;40.33;17.88;;;;;;;22.66;28.48;102900.63;5094045;28;20290;-57
2022/03/22 20:52:16;;;;;;;38.22;17.40;;;;;;;22.62;28.45;102897.50;5106793;28;20036;-54
2022/03/22 20:54:42;;;;;;;42.42;17.75;;;;;;;22.64;28.15;102905.47;5098122;28;20113;-55
2022/03/22 20:59:52;;;;;;;49.27;19.27;;;;;;;22.43;28.68;102904.81;5089409;28;20040;-52
2022/03/22 21:02:17;;;;;;;47.15;18.08;;;;;;;22.34;28.68;102897.97;5092438;28;20783;-56
2022/03/22 21:04:45;;;;;;;43.75;18.15;;;;;;;22.22;29.13;102905.25;5091149;28;20037;-55
2022/03/22 21:07:12;;;;;;;39.50;18.70;;;;;;;22.23;28.96;102907.72;5088578;28;20087;-55
2022/03/22 21:09:37;;;;;;;40.60;18.80;;;;;;;22.26;28.62;102909.19;5075853;28;20300;-57
2022/03/22 21:12:06;;;;;;;41.10;17.08;;;;;;;22.06;29.25;102907.47;5079517;28;20349;-56
2022/03/22 21:14:33;;;;;;;43.00;19.17;;;;;;;21.98;29.48;102907.75;5076376;28;20059;-57
2022/03/22 21:16:58;;;;;;;41.60;18.90;;;;;;;21.99;29.06;102909.41;5075768;28;20316;-58
2022/03/22 21:19:25;;;;;;;44.05;19.00;;;;;;;21.98;29.42;102907.75;5076812;28;20028;-57
2022/03/22 21:21:51;;;;;;;45.40;18.42;;;;;;;21.87;29.28;102904.69;5077232;28;20048;-56
2022/03/22 21:24:16;;;;;;;44.47;17.98;;;;;;;21.82;29.60;102909.16;5078212;28;20051;-55
2022/03/22 21:26:42;;;;;;;41.20;19.47;;;;;;;21.78;29.69;102912.28;5076957;28;20037;-57
2022/03/22 21:29:07;;;;;;;40.40;18.38;;;;;;;21.65;29.79;102900.66;5077035;28;20028;-56
2022/03/22 21:31:33;;;;;;;38.67;18.37;;;;;;;21.62;29.71;102899.19;5076793;28;20029;-56
2022/03/22 21:33:59;;;;;;;42.50;18.23;;;;;;;21.58;29.74;102908.88;5078006;28;20272;-56
2022/03/22 21:36:26;;;;;;;42.93;18.23;;;;;;;21.57;29.97;102908.00;5077118;28;20037;-53
2022/03/22 21:38:51;;;;;;;;;;;;;;;21.54;29.69;102903.00;5076391;28;20041;-56
2022/03/22 21:41:17;;;;;;;42.57;18.83;;;;;;;21.57;30.11;102901.75;5076611;28;19938;-53
2022/03/22 21:43:44;;;;;;;41.60;18.67;;;;;;;21.54;29.77;102905.72;5076498;28;20266;-57
2022/03/22 21:46:11;;;;;;;41.30;18.27;;;;;;;21.34;30.20;102900.41;5078452;28;20048;-54
2022/03/22 21:48:37;;;;;;;;;;;;;;;21.45;30.13;102910.59;5075807;28;20277;-58
2022/03/22 21:51:03;;;;;;;45.90;19.43;;;;;;;21.28;30.11;102912.16;5077098;28;19958;-57
2022/03/22 21:53:29;;;;;;;40.90;18.27;;;;;;;21.26;30.33;102914.25;5088634;28;20100;-56
2022/03/22 21:55:55;;;;;;;;;;;;;;;21.21;30.39;102912.19;5079784;28;20044;-55
2022/03/22 21:58:21;;;;;;;41.27;18.33;;;;;;;21.28;30.15;102915.72;5091171;28;19979;-56
2022/03/22 22:00:47;;;;;;;;;;;;;;;21.23;30.53;102906.53;5084306;28;20036;-55
2022/03/22 22:03:14;;;;;;;39.80;19.50;;;;;;;21.13;30.70;102912.44;5084527;28;19919;-58
2022/03/22 22:05:40;;;;;;;42.30;17.92;;;;;;;21.10;30.39;102910.97;5090780;28;20104;-56
2022/03/22 22:08:05;;;;;;;;;;;;;;;21.07;30.52;102914.13;5077894;28;20055;-54
2022/03/22 22:10:31;;;;;;;39.57;19.40;;;;;;;21.02;30.50;102906.66;5081489;28;19916;-55
2022/03/22 22:12:58;;;;;;;43.17;19.65;;;;;;;21.01;30.68;102909.56;5087189;28;20033;-55
2022/03/22 22:15:25;;;;;;;48.80;18.23;;;;;;;20.96;30.96;102907.47;5088718;28;20037;-58
2022/03/22 22:17:50;;;;;;;40.57;17.77;;;;;;;20.95;31.02;102916.69;5079184;28;20289;-55
2022/03/22 22:20:16;;;;;;;38.43;18.00;;;;;;;20.83;31.04;102911.09;5091249;28;20452;-52
2022/03/22 22:22:45;;;;;;;46.17;19.73;;;;;;;20.81;31.02;102913.19;5082610;28;20051;-53
2022/03/22 22:25:11;;;;;;;43.97;17.25;;;;;;;20.67;31.25;102915.09;5084893;28;20053;-55
2022/03/22 22:27:36;;;;;;;41.10;18.70;;;;;;;20.67;31.23;102912.38;5077046;28;20032;-56
2022/03/22 22:30:03;;;;;;;42.42;18.58;;;;;;;20.68;31.29;102913.22;5075622;28;20052;-54
2022/03/22 22:35:15;;;;;;;43.13;20.27;;;;;;;20.66;31.05;102902.53;5076620;28;20297;-57
2022/03/22 22:37:41;;;;;;;45.45;19.13;;;;;;;20.68;31.06;102905.06;5076682;28;20282;-54
2022/03/22 22:40:08;;;;;;;45.25;19.23;;;;;;;20.40;31.34;102903.41;5078583;28;20067;-54
2022/03/22 22:42:35;;;;;;;48.23;20.03;;;;;;;20.46;31.45;102908.03;5077108;28;20033;-57
2022/03/22 22:45:00;;;;;;;;;;;;;;;20.38;31.70;102910.94;5076875;28;20351;-57
2022/03/22 22:47:26;;;;;;;48.63;19.70;;;;;;;20.24;32.08;102905.56;5076521;28;19916;-53
2022/03/22 22:49:51;;;;;;;46.77;20.50;;;;;;;20.12;32.22;102905.34;5074187;28;20269;-55
2022/03/22 22:52:17;;;;;;;47.10;20.38;;;;;;;20.14;32.41;102911.41;5078784;28;20032;-54
2022/03/22 22:54:44;;;;;;;46.92;20.35;;;;;;;20.06;32.29;102900.75;5073989;28;20033;-55
2022/03/22 22:57:10;;;;;;;52.65;21.92;;;;;;;20.10;32.32;102903.88;5076307;28;20037;-56
2022/03/22 22:59:36;;;;;;;46.30;19.55;;;;;;;20.08;32.07;102897.81;5070803;28;20028;-56
2022/03/22 23:02:02;;;;;;;48.63;19.50;;;;;;;19.99;32.04;102902.63;5077449;28;20031;-54
2022/03/22 23:04:28;;;;;;;52.15;19.95;;;;;;;19.84;32.51;102903.66;5077396;28;20130;-57
2022/03/22 23:12:22;;;;;;;42.33;18.52;;;;;;;19.85;32.34;102904.47;5058621;28;20054;-56
2022/03/22 23:14:47;;;;;;;42.27;19.27;;;;;;;19.81;32.46;102900.50;5082226;28;20036;-55
2022/03/22 23:17:15;;;;;;;43.90;19.87;;;;;;;19.78;32.66;102902.59;5083936;28;20292;-56
2022/03/22 23:19:41;;;;;;;44.22;18.70;;;;;;;19.76;32.50;102898.41;5089068;28;20136;-55
2022/03/22 23:22:07;;;;;;;35.55;17.02;;;;;;;19.68;32.80;102898.63;5078013;28;20056;-55
2022/03/22 23:24:32;;;;;;;47.87;19.17;;;;;;;19.68;32.68;102895.91;5089776;28;20067;-56
2022/03/22 23:27:01;;;;;;;50.73;19.77;;;;;;;19.45;32.78;102899.81;5083554;28;20277;-53
2022/03/22 23:29:28;;;;;;;39.00;17.73;;;;;;;19.52;32.92;102892.53;5082189;28;20045;-54
2022/03/22 23:31:54;;;;;;;39.92;18.67;;;;;;;19.62;32.82;102892.13;5090668;28;20035;-56
2022/03/22 23:34:20;;;;;;;39.17;16.75;;;;;;;19.49;32.97;102882.94;5077929;28;20079;-55
2022/03/22 23:36:46;;;;;;;45.63;17.15;;;;;;;19.50;32.97;102889.19;5087643;28;20041;-55
2022/03/22 23:39:12;;;;;;;45.40;17.88;;;;;;;19.46;33.13;102887.94;5085078;28;20100;-56
2022/03/22 23:41:37;;;;;;;38.45;17.00;;;;;;;19.35;33.15;102882.03;5079480;28;20594;-53
2022/03/22 23:44:03;;;;;;;42.08;17.75;;;;;;;19.33;33.18;102884.13;5071573;28;20056;-54
2022/03/22 23:46:29;;;;;;;44.55;18.52;;;;;;;19.39;33.12;102876.22;5089985;28;20037;-54
2022/03/22 23:48:55;;;;;;;50.25;17.52;;;;;;;19.26;33.31;102886.00;5074286;28;20087;-56
2022/03/22 23:51:21;;;;;;;42.30;17.13;;;;;;;19.25;33.32;102883.47;5086222;28;20036;-55
2022/03/22 23:53:46;;;;;;;40.03;18.63;;;;;;;19.20;33.38;102881.41;5078811;28;20036;-52
2022/03/22 23:56:13;;;;;;;44.03;17.93;;;;;;;19.19;33.46;102872.41;5090489;28;20036;-55
2022/03/22 23:58:39;;;;;;;48.08;18.33;;;;;;;19.15;33.34;102878.47;5080301;28;20036;-54
